Time;durP1;ratioP1;P1;durP2;ratioP2;P2;SDS_P1;SDS_P2;PMS_P1;PMS_P2;Temp;Humidity;BMP_temperature;BMP_pressure;BME280_temperature;BME280_humidity;BME280_pressure;Samples;Min_cycle;Max_cycle;Signal;HPM_P1;HPM_P2
2021/06/28 00:00:43;;;;;;;0.40;0.28;;;17.60;99.90;;;;;;5075683;28;20770;-78
2021/06/28 00:03:08;;;;;;;0.40;0.20;;;17.70;99.90;;;;;;5110802;28;20395;-77
2021/06/28 00:05:34;;;;;;;0.40;0.20;;;17.80;99.90;;;;;;5096112;28;20743;-77
2021/06/28 00:08:00;;;;;;;0.40;0.20;;;17.90;99.90;;;;;;5097665;28;20876;-81
2021/06/28 00:10:29;;;;;;;0.40;0.30;;;17.70;99.90;;;;;;5093591;28;20450;-78
2021/06/28 00:12:57;;;;;;;0.40;0.30;;;17.80;99.90;;;;;;5092376;28;20835;-78
2021/06/28 00:15:31;;;;;;;0.40;0.20;;;17.80;99.90;;;;;;5092830;28;20473;-77
2021/06/28 00:17:58;;;;;;;0.40;0.20;;;17.70;99.90;;;;;;5090780;28;20409;-76
2021/06/28 00:20:24;;;;;;;0.40;0.20;;;17.70;99.90;;;;;;5090434;28;20379;-76
2021/06/28 00:22:50;;;;;;;0.40;0.30;;;17.80;99.90;;;;;;5108503;28;20891;-76
2021/06/28 00:25:19;;;;;;;0.40;0.20;;;17.60;99.90;;;;;;5110221;28;20532;-76
2021/06/28 00:27:45;;;;;;;0.40;0.30;;;17.50;99.90;;;;;;5108029;28;20390;-76
2021/06/28 00:30:15;;;;;;;0.40;0.30;;;17.70;99.90;;;;;;5090249;28;20385;-75
2021/06/28 00:32:41;;;;;;;0.40;0.20;;;18.00;99.90;;;;;;5102593;28;20400;-76
2021/06/28 00:35:08;;;;;;;0.40;0.20;;;18.00;99.90;;;;;;5110952;28;20383;-76
2021/06/28 00:37:34;;;;;;;0.40;0.20;;;17.80;99.90;;;;;;5090743;28;20393;-76
2021/06/28 00:40:00;;;;;;;0.40;0.25;;;17.70;99.90;;;;;;5098580;28;20980;-75
2021/06/28 00:42:26;;;;;;;0.40;0.22;;;18.00;99.90;;;;;;5110763;28;20441;-76
2021/06/28 00:44:52;;;;;;;0.40;0.30;;;17.60;99.90;;;;;;5111374;28;20833;-76
2021/06/28 00:47:19;;;;;;;0.40;0.30;;;17.50;99.90;;;;;;5110221;28;20420;-75
2021/06/28 00:49:45;;;;;;;0.40;0.30;;;17.80;99.90;;;;;;5108184;28;20376;-76
2021/06/28 00:52:11;;;;;;;0.40;0.30;;;17.50;99.90;;;;;;5094131;28;20444;-76
2021/06/28 00:54:38;;;;;;;0.40;0.30;;;17.50;99.90;;;;;;5105213;28;20453;-76
2021/06/28 00:57:05;;;;;;;0.40;0.30;;;17.80;99.90;;;;;;5110609;28;20390;-77
2021/06/28 00:59:32;;;;;;;0.40;0.30;;;17.50;99.90;;;;;;5111277;28;20376;-75
2021/06/28 01:01:59;;;;;;;0.40;0.20;;;17.60;99.90;;;;;;5111339;28;20395;-76
2021/06/28 01:04:26;;;;;;;0.40;0.30;;;17.60;99.90;;;;;;5100428;28;20386;-75
2021/06/28 01:06:52;;;;;;;0.40;0.20;;;17.70;99.90;;;;;;5090788;28;20401;-75
2021/06/28 01:09:18;;;;;;;0.40;0.30;;;17.70;99.90;;;;;;5109274;28;20483;-76
2021/06/28 01:11:43;;;;;;;0.40;0.20;;;17.50;99.90;;;;;;5111311;28;20852;-77
2021/06/28 01:14:09;;;;;;;0.40;0.30;;;17.60;99.90;;;;;;5110232;28;20380;-77
2021/06/28 01:16:36;;;;;;;0.40;0.30;;;17.90;99.90;;;;;;5111094;28;20381;-76
2021/06/28 01:19:02;;;;;;;0.40;0.30;;;17.50;99.90;;;;;;5096459;28;20826;-76
2021/06/28 01:21:29;;;;;;;0.40;0.30;;;17.50;99.90;;;;;;5096728;28;20384;-76
2021/06/28 01:23:56;;;;;;;0.40;0.30;;;17.40;99.90;;;;;;5108958;28;20435;-76
2021/06/28 01:26:21;;;;;;;0.40;0.20;;;17.80;99.90;;;;;;5090062;28;20418;-76
2021/06/28 01:28:47;;;;;;;0.40;0.20;;;17.70;99.90;;;;;;5090780;28;20468;-77
2021/06/28 01:31:13;;;;;;;0.40;0.30;;;17.90;99.90;;;;;;5091499;28;20381;-76
2021/06/28 01:33:39;;;;;;;0.40;0.20;;;17.70;99.90;;;;;;5111025;28;20449;-76
2021/06/28 01:36:06;;;;;;;0.40;0.20;;;17.80;99.90;;;;;;5098991;28;20527;-79
2021/06/28 01:38:32;;;;;;;0.40;0.30;;;17.70;99.90;;;;;;5092022;28;20374;-76
2021/06/28 01:40:58;;;;;;;0.40;0.20;;;17.60;99.90;;;;;;5110814;28;20389;-76
2021/06/28 01:43:23;;;;;;;0.40;0.20;;;17.70;99.90;;;;;;5083053;28;20876;-77
2021/06/28 01:45:53;;;;;;;0.40;0.20;;;17.50;99.90;;;;;;5090317;28;20401;-77
2021/06/28 01:48:19;;;;;;;0.40;0.30;;;17.40;99.90;;;;;;5089856;28;20387;-77
2021/06/28 01:50:49;;;;;;;0.40;0.30;;;17.70;99.90;;;;;;5101610;28;20487;-77
2021/06/28 01:53:15;;;;;;;0.40;0.30;;;17.50;99.90;;;;;;5093260;28;20416;-77
2021/06/28 01:55:41;;;;;;;0.40;0.30;;;17.60;99.90;;;;;;5114240;28;20436;-77
2021/06/28 01:58:12;;;;;;;0.40;0.30;;;17.70;99.90;;;;;;5099519;28;20723;-78
2021/06/28 02:00:41;;;;;;;0.40;0.20;;;17.80;99.90;;;;;;5102796;28;20396;-78
2021/06/28 02:03:10;;;;;;;0.40;0.20;;;17.60;99.90;;;;;;5113579;28;20491;-78
2021/06/28 02:05:37;;;;;;;0.40;0.30;;;;;;;;;;5114030;28;20411;-78
2021/06/28 02:08:07;;;;;;;0.40;0.20;;;17.70;99.90;;;;;;5114048;28;20380;-77
2021/06/28 02:10:35;;;;;;;0.40;0.30;;;17.40;99.90;;;;;;5108269;28;20386;-77
2021/06/28 02:13:01;;;;;;;0.40;0.30;;;17.50;99.90;;;;;;5093090;28;20400;-77
2021/06/28 02:15:29;;;;;;;0.40;0.20;;;17.70;99.90;;;;;;5093060;28;20877;-78
2021/06/28 02:17:56;;;;;;;0.40;0.30;;;18.40;99.90;;;;;;5106982;28;20470;-78
2021/06/28 02:20:22;;;;;;;0.40;0.40;;;17.50;99.90;;;;;;5092488;28;20441;-78
2021/06/28 02:22:49;;;;;;;0.40;0.20;;;17.40;99.90;;;;;;5113517;28;20388;-77
2021/06/28 02:25:15;;;;;;;0.40;0.30;;;17.70;99.90;;;;;;5105718;28;20500;-78
2021/06/28 02:27:42;;;;;;;0.40;0.30;;;17.30;99.90;;;;;;5105119;28;20760;-78
2021/06/28 02:30:16;;;;;;;0.40;0.20;;;17.30;99.90;;;;;;5113489;28;20845;-78
2021/06/28 02:32:43;;;;;;;0.40;0.20;;;17.60;99.90;;;;;;5104960;28;20393;-78
2021/06/28 02:35:11;;;;;;;0.40;0.20;;;17.40;99.90;;;;;;5092742;28;20374;-80
2021/06/28 02:37:39;;;;;;;0.40;0.30;;;17.20;99.90;;;;;;5110223;28;20471;-78
2021/06/28 02:40:09;;;;;;;0.40;0.20;;;17.30;99.90;;;;;;5104883;28;20390;-78
2021/06/28 02:42:35;;;;;;;0.40;0.20;;;17.10;99.90;;;;;;5093573;28;20480;-79
2021/06/28 02:45:01;;;;;;;0.40;0.20;;;17.40;99.90;;;;;;5110693;28;20473;-78
2021/06/28 02:47:27;;;;;;;0.40;0.27;;;17.20;99.90;;;;;;5104332;28;20831;-79
2021/06/28 02:49:52;;;;;;;0.40;0.30;;;17.30;99.90;;;;;;5110951;28;20373;-78
2021/06/28 02:52:18;;;;;;;0.40;0.30;;;17.30;99.90;;;;;;5104568;28;20733;-79
2021/06/28 02:54:44;;;;;;;0.40;0.30;;;17.50;99.90;;;;;;5112379;28;20392;-79
2021/06/28 02:57:10;;;;;;;0.40;0.20;;;17.30;99.90;;;;;;5112209;28;20384;-80
2021/06/28 02:59:35;;;;;;;0.40;0.20;;;17.50;99.90;;;;;;5092497;28;20385;-78
2021/06/28 03:02:01;;;;;;;0.40;0.20;;;17.50;99.90;;;;;;5103783;28;20396;-79
2021/06/28 03:04:26;;;;;;;0.40;0.20;;;17.10;99.90;;;;;;5107582;28;20888;-78
2021/06/28 03:06:52;;;;;;;0.40;0.20;;;17.20;99.90;;;;;;5092489;28;20901;-79
2021/06/28 03:09:18;;;;;;;0.40;0.20;;;17.20;99.90;;;;;;5104440;28;20389;-79
2021/06/28 03:11:43;;;;;;;0.40;0.20;;;17.10;99.90;;;;;;5110632;28;20402;-79
2021/06/28 03:14:09;;;;;;;0.40;0.20;;;17.50;99.90;;;;;;5092440;28;20428;-78
2021/06/28 03:16:35;;;;;;;0.40;0.20;;;17.10;99.90;;;;;;5091755;28;20386;-78
2021/06/28 03:19:00;;;;;;;0.40;0.20;;;17.10;99.90;;;;;;5092352;28;20382;-78
2021/06/28 03:21:26;;;;;;;0.40;0.20;;;17.00;99.90;;;;;;5110825;28;20936;-78
2021/06/28 03:23:52;;;;;;;0.40;0.20;;;17.50;99.90;;;;;;5100718;28;20841;-78
2021/06/28 03:26:18;;;;;;;0.40;0.30;;;17.40;99.90;;;;;;5097137;28;20412;-78
2021/06/28 03:28:43;;;;;;;0.40;0.20;;;17.30;99.90;;;;;;5112288;28;20393;-78
2021/06/28 03:31:10;;;;;;;0.40;0.20;;;17.50;99.90;;;;;;5095217;28;20398;-77
2021/06/28 03:33:36;;;;;;;0.40;0.20;;;17.40;99.90;;;;;;5091664;28;20397;-78
2021/06/28 03:36:03;;;;;;;0.40;0.20;;;17.00;99.90;;;;;;5091831;28;20386;-78
2021/06/28 03:38:29;;;;;;;0.40;0.20;;;17.60;99.90;;;;;;5091358;28;20776;-78
2021/06/28 03:40:55;;;;;;;0.40;0.30;;;17.30;99.90;;;;;;5104806;28;20386;-77
2021/06/28 03:43:21;;;;;;;0.40;0.30;;;17.30;99.90;;;;;;5109181;28;20384;-78
2021/06/28 03:45:47;;;;;;;0.40;0.20;;;17.00;99.90;;;;;;5091544;28;20436;-78
2021/06/28 03:48:13;;;;;;;0.40;0.40;;;17.00;99.90;;;;;;5100779;28;20396;-79
2021/06/28 03:50:40;;;;;;;0.40;0.20;;;16.80;99.90;;;;;;5112035;28;20868;-78
2021/06/28 03:53:06;;;;;;;0.40;0.20;;;17.10;99.90;;;;;;5074780;28;20392;-77
2021/06/28 03:55:32;;;;;;;0.40;0.20;;;16.90;99.90;;;;;;5099119;28;20400;-78
2021/06/28 03:57:58;;;;;;;0.40;0.30;;;16.70;99.90;;;;;;5112082;28;20468;-77
2021/06/28 04:00:25;;;;;;;0.50;0.40;;;17.00;99.90;;;;;;5094076;28;20390;-78
2021/06/28 04:02:52;;;;;;;0.40;0.20;;;17.00;99.90;;;;;;5097013;28;20388;-77
2021/06/28 04:05:21;;;;;;;0.40;0.30;;;16.80;99.90;;;;;;5111517;28;20376;-77
2021/06/28 04:07:47;;;;;;;0.40;0.30;;;16.70;99.90;;;;;;5096986;28;20439;-77
2021/06/28 04:10:20;;;;;;;0.40;0.30;;;17.20;99.90;;;;;;5096010;28;20404;-77
2021/06/28 04:12:47;;;;;;;0.40;0.30;;;17.10;99.90;;;;;;5110395;28;20387;-78
2021/06/28 04:15:14;;;;;;;0.40;0.20;;;16.70;99.90;;;;;;5091420;28;20390;-77
2021/06/28 04:17:43;;;;;;;0.40;0.22;;;16.90;99.90;;;;;;5097614;28;20415;-77
2021/06/28 04:20:10;;;;;;;0.40;0.30;;;17.20;99.90;;;;;;5096498;28;20377;-77
2021/06/28 04:22:36;;;;;;;0.40;0.20;;;16.60;99.90;;;;;;5090925;28;20390;-77
2021/06/28 04:25:05;;;;;;;0.40;0.30;;;16.90;99.90;;;;;;5091401;28;20409;-77
2021/06/28 04:27:30;;;;;;;0.40;0.20;;;16.80;99.90;;;;;;5092954;28;20390;-77
2021/06/28 04:29:56;;;;;;;0.40;0.30;;;17.10;99.90;;;;;;5111996;28;20717;-76
2021/06/28 04:32:22;;;;;;;0.40;0.20;;;17.10;99.90;;;;;;5110870;28;20384;-77
2021/06/28 04:34:47;;;;;;;0.40;0.20;;;17.00;99.90;;;;;;5111916;28;20365;-77
2021/06/28 04:37:13;;;;;;;0.40;0.20;;;16.80;99.90;;;;;;5092163;28;20394;-77
2021/06/28 04:39:39;;;;;;;0.40;0.20;;;17.20;99.90;;;;;;5098312;28;20744;-76
2021/06/28 04:42:06;;;;;;;0.40;0.20;;;16.90;99.90;;;;;;5111525;28;20817;-76
2021/06/28 04:44:32;;;;;;;0.40;0.20;;;17.20;99.90;;;;;;5092429;28;20389;-76
2021/06/28 04:46:58;;;;;;;0.40;0.20;;;17.20;99.90;;;;;;5091181;28;20905;-76
2021/06/28 04:49:24;;;;;;;0.40;0.30;;;17.20;99.90;;;;;;5092466;28;20389;-76
2021/06/28 04:51:50;;;;;;;0.40;0.30;;;17.10;99.90;;;;;;5103432;28;20435;-76
2021/06/28 04:54:16;;;;;;;0.40;0.30;;;17.10;99.90;;;;;;5106597;28;20472;-76
2021/06/28 04:56:42;;;;;;;0.40;0.20;;;17.10;99.90;;;;;;5105345;28;20394;-76
2021/06/28 04:59:08;;;;;;;0.40;0.30;;;17.10;99.90;;;;;;5091311;28;20397;-76
2021/06/28 05:01:33;;;;;;;0.40;0.30;;;17.20;99.90;;;;;;5103428;28;20407;-77
2021/06/28 05:03:59;;;;;;;0.40;0.30;;;17.00;99.90;;;;;;5110697;28;20475;-76
2021/06/28 05:06:25;;;;;;;0.40;0.20;;;17.00;99.90;;;;;;5110819;28;20726;-77
2021/06/28 05:08:50;;;;;;;0.40;0.20;;;17.10;99.90;;;;;;5096913;28;20390;-76
2021/06/28 05:11:16;;;;;;;0.40;0.20;;;17.50;99.90;;;;;;5097870;28;20385;-76
2021/06/28 05:13:41;;;;;;;0.40;0.20;;;17.20;99.90;;;;;;5110095;28;20419;-76
2021/06/28 05:16:07;;;;;;;0.40;0.20;;;17.50;99.90;;;;;;5090888;28;20783;-76
2021/06/28 05:18:33;;;;;;;0.40;0.30;;;17.00;99.90;;;;;;5096067;28;20533;-77
2021/06/28 05:20:58;;;;;;;0.40;0.20;;;17.40;99.90;;;;;;5111016;28;20372;-77
2021/06/28 05:23:24;;;;;;;0.40;0.20;;;17.20;99.90;;;;;;5096063;28;20390;-76
2021/06/28 05:25:53;;;;;;;0.40;0.20;;;17.40;99.90;;;;;;5101928;28;20486;-76
2021/06/28 05:28:18;;;;;;;0.40;0.20;;;17.20;99.90;;;;;;5114183;28;20392;-78
2021/06/28 05:30:44;;;;;;;0.40;0.20;;;17.20;99.90;;;;;;5093429;28;20382;-77
2021/06/28 05:33:10;;;;;;;0.40;0.20;;;17.30;99.90;;;;;;5104284;28;20388;-77
2021/06/28 05:35:39;;;;;;;0.40;0.20;;;17.40;99.90;;;;;;5111195;28;20413;-75
2021/06/28 05:38:05;;;;;;;0.40;0.20;;;17.20;99.90;;;;;;5094200;28;20415;-77
2021/06/28 05:40:30;;;;;;;0.40;0.20;;;17.10;99.90;;;;;;5104234;28;20389;-77
2021/06/28 05:42:56;;;;;;;0.40;0.20;;;17.40;99.90;;;;;;5114145;28;20436;-77
2021/06/28 05:45:27;;;;;;;0.40;0.20;;;17.20;99.90;;;;;;5094392;28;20867;-77
2021/06/28 05:47:53;;;;;;;0.40;0.20;;;17.30;99.90;;;;;;5100619;28;20380;-85
2021/06/28 05:50:20;;;;;;;0.40;0.20;;;17.10;99.90;;;;;;5115218;28;20851;-84
2021/06/28 05:52:46;;;;;;;0.40;0.20;;;17.20;99.90;;;;;;5090568;28;20418;-86
2021/06/28 05:55:13;;;;;;;0.40;0.30;;;17.90;99.90;;;;;;5114634;28;20472;-85
2021/06/28 05:57:39;;;;;;;0.40;0.30;;;17.90;99.90;;;;;;5094826;28;20449;-84
2021/06/28 06:00:08;;;;;;;0.40;0.30;;;17.70;99.90;;;;;;5112762;28;20384;-84
2021/06/28 06:02:34;;;;;;;0.60;0.40;;;18.10;99.90;;;;;;5099650;28;20389;-85
2021/06/28 06:05:00;;;;;;;0.40;0.20;;;17.60;99.90;;;;;;5076127;28;20404;-84
2021/06/28 06:07:29;;;;;;;0.40;0.20;;;17.80;99.90;;;;;;5113328;28;20748;-84
2021/06/28 06:09:54;;;;;;;0.40;0.30;;;17.10;99.90;;;;;;5105159;28;20405;-84
2021/06/28 06:12:20;;;;;;;0.40;0.30;;;18.00;99.90;;;;;;5093839;28;20378;-84
2021/06/28 06:14:45;;;;;;;0.40;0.20;;;18.10;99.90;;;;;;5110266;28;20449;-84
2021/06/28 06:17:11;;;;;;;0.40;0.30;;;17.90;99.90;;;;;;5108669;28;20402;-84
2021/06/28 06:19:37;;;;;;;0.40;0.20;;;18.00;99.90;;;;;;5092565;28;20377;-84
2021/06/28 06:22:03;;;;;;;0.40;0.20;;;18.10;99.90;;;;;;5111443;28;20389;-83
2021/06/28 06:24:29;;;;;;;0.40;0.30;;;18.20;99.90;;;;;;5099725;28;20454;-83
2021/06/28 06:26:56;;;;;;;0.40;0.30;;;17.90;99.90;;;;;;5093327;28;20890;-84
2021/06/28 06:29:25;;;;;;;0.40;0.30;;;18.20;99.90;;;;;;5093210;28;20869;-84
2021/06/28 06:31:51;;;;;;;0.40;0.20;;;18.60;99.90;;;;;;5093306;28;20427;-84
2021/06/28 06:34:17;;;;;;;0.40;0.30;;;18.40;99.90;;;;;;5101021;28;20399;-84
2021/06/28 06:36:43;;;;;;;0.40;0.20;;;18.10;99.90;;;;;;5112201;28;20873;-84
2021/06/28 06:39:09;;;;;;;0.40;0.30;;;18.20;99.90;;;;;;5110941;28;20473;-83
2021/06/28 06:41:34;;;;;;;0.40;0.30;;;18.40;99.90;;;;;;5100910;28;20447;-85
2021/06/28 06:44:00;;;;;;;0.40;0.20;;;18.60;99.90;;;;;;5096917;28;20872;-83
2021/06/28 06:46:26;;;;;;;0.40;0.30;;;19.00;99.90;;;;;;5094523;28;20408;-85
2021/06/28 06:48:51;;;;;;;0.40;0.30;;;19.10;99.90;;;;;;5097441;28;20393;-83
2021/06/28 06:51:19;;;;;;;0.40;0.20;;;19.20;99.90;;;;;;5094031;28;20730;-83
2021/06/28 06:53:44;;;;;;;0.40;0.30;;;19.10;99.90;;;;;;5074241;28;20386;-86
2021/06/28 06:56:10;;;;;;;0.40;0.20;;;19.20;99.90;;;;;;5094731;28;20418;-83
2021/06/28 06:58:36;;;;;;;0.40;0.20;;;19.10;99.90;;;;;;5101663;28;20386;-84
2021/06/28 07:01:05;;;;;;;0.40;0.20;;;19.10;99.90;;;;;;5093409;28;20437;-83
2021/06/28 07:03:30;;;;;;;0.40;0.20;;;19.60;99.90;;;;;;5110912;28;20384;-84
2021/06/28 07:05:56;;;;;;;0.40;0.20;;;19.70;99.90;;;;;;5088791;28;20421;-83
2021/06/28 07:08:22;;;;;;;0.40;0.30;;;19.90;99.90;;;;;;5093028;28;20378;-83
2021/06/28 07:10:48;;;;;;;0.40;0.30;;;19.60;99.90;;;;;;5109483;28;20509;-83
2021/06/28 07:13:14;;;;;;;0.40;0.30;;;19.80;99.90;;;;;;5103684;28;20469;-83
2021/06/28 07:15:40;;;;;;;0.40;0.30;;;20.20;99.90;;;;;;5073995;28;20378;-84
2021/06/28 07:18:07;;;;;;;0.40;0.30;;;20.00;99.90;;;;;;5092749;28;20451;-82
2021/06/28 07:20:33;;;;;;;0.40;0.20;;;20.60;99.90;;;;;;5092337;28;20402;-80
2021/06/28 07:22:59;;;;;;;0.40;0.22;;;20.20;99.90;;;;;;5096666;28;20381;-81
2021/06/28 07:25:25;;;;;;;0.40;0.20;;;20.20;99.90;;;;;;5112415;28;20424;-84
2021/06/28 07:27:52;;;;;;;0.40;0.30;;;20.60;99.90;;;;;;5100161;28;20862;-83
2021/06/28 07:30:21;;;;;;;0.40;0.20;;;20.60;99.90;;;;;;5097094;28;20392;-85
2021/06/28 07:32:49;;;;;;;0.40;0.20;;;20.80;99.90;;;;;;5112275;28;20387;-85
2021/06/28 07:35:15;;;;;;;0.40;0.20;;;20.60;99.90;;;;;;5095859;28;20389;-84
2021/06/28 07:37:41;;;;;;;0.40;0.30;;;20.50;99.90;;;;;;5073511;28;20742;-84
2021/06/28 07:40:09;;;;;;;0.40;0.20;;;20.30;99.90;;;;;;5092412;28;20374;-83
2021/06/28 07:42:35;;;;;;;0.40;0.30;;;20.30;99.90;;;;;;5099109;28;20392;-85
2021/06/28 07:45:01;;;;;;;0.40;0.30;;;20.40;99.90;;;;;;5094613;28;20384;-83
2021/06/28 07:47:27;;;;;;;0.40;0.20;;;20.60;99.90;;;;;;5075172;28;20445;-83
2021/06/28 07:49:53;;;;;;;0.40;0.20;;;20.60;99.90;;;;;;5092388;28;20739;-82
2021/06/28 07:52:19;;;;;;;0.40;0.20;;;20.40;99.90;;;;;;5104197;28;20377;-82
2021/06/28 07:54:45;;;;;;;0.40;0.30;;;20.40;99.90;;;;;;5110553;28;20392;-81
2021/06/28 07:57:11;;;;;;;0.40;0.30;;;20.80;99.90;;;;;;5105628;28;20405;-82
2021/06/28 07:59:37;;;;;;;0.40;0.20;;;20.70;99.90;;;;;;5073176;28;20432;-82
2021/06/28 08:02:05;;;;;;;0.40;0.30;;;20.80;99.90;;;;;;5108904;28;20790;-82
2021/06/28 08:04:30;;;;;;;0.40;0.20;;;20.70;99.90;;;;;;5111560;28;20458;-82
2021/06/28 08:06:56;;;;;;;0.40;0.20;;;21.00;99.90;;;;;;5112360;28;20619;-82
2021/06/28 08:09:22;;;;;;;0.40;0.20;;;20.90;99.90;;;;;;5112171;28;20388;-81
2021/06/28 08:11:49;;;;;;;0.40;0.20;;;20.80;99.90;;;;;;5099255;28;20377;-82
2021/06/28 08:14:17;;;;;;;0.40;0.30;;;20.60;99.90;;;;;;5091872;28;20408;-83
2021/06/28 08:16:43;;;;;;;0.40;0.20;;;20.80;99.90;;;;;;5073087;28;20894;-81
2021/06/28 08:19:10;;;;;;;0.40;0.30;;;20.70;99.90;;;;;;5101969;28;20377;-81
2021/06/28 08:21:37;;;;;;;0.40;0.30;;;20.80;99.90;;;;;;5111394;28;20400;-82
2021/06/28 08:24:06;;;;;;;0.40;0.30;;;21.00;99.90;;;;;;5111404;28;20387;-81
2021/06/28 08:26:33;;;;;;;0.40;0.30;;;21.00;99.90;;;;;;5084487;28;20418;-82
2021/06/28 08:29:02;;;;;;;0.40;0.20;;;21.20;99.90;;;;;;5091541;28;20414;-81
2021/06/28 08:31:29;;;;;;;0.40;0.30;;;21.50;99.90;;;;;;5073563;28;20398;-81
2021/06/28 08:33:55;;;;;;;0.40;0.20;;;21.50;99.90;;;;;;5072593;28;20390;-81
2021/06/28 08:36:20;;;;;;;0.40;0.20;;;21.80;99.90;;;;;;5094838;28;20392;-80
2021/06/28 08:38:46;;;;;;;0.40;0.20;;;22.00;99.90;;;;;;5111143;28;20428;-81
2021/06/28 08:41:17;;;;;;;0.40;0.20;;;21.50;99.90;;;;;;5111286;28;20893;-80
2021/06/28 08:43:45;;;;;;;0.40;0.20;;;22.00;99.90;;;;;;5107297;28;20401;-81
2021/06/28 08:46:14;;;;;;;0.40;0.30;;;22.00;99.90;;;;;;5091274;28;20505;-81
2021/06/28 08:48:44;;;;;;;0.40;0.20;;;21.90;99.90;;;;;;5072820;28;20484;-81
2021/06/28 08:51:11;;;;;;;0.40;0.30;;;22.20;99.90;;;;;;5093070;28;20395;-81
2021/06/28 08:53:36;;;;;;;0.40;0.20;;;22.30;99.90;;;;;;5090381;28;20773;-81
2021/06/28 08:56:07;;;;;;;0.40;0.20;;;22.40;99.90;;;;;;5106356;28;20392;-81
2021/06/28 08:58:39;;;;;;;0.40;0.20;;;22.40;99.90;;;;;;5103212;28;20393;-81
2021/06/28 09:01:06;;;;;;;0.40;0.30;;;22.60;99.90;;;;;;5095510;28;20381;-80
2021/06/28 09:03:35;;;;;;;0.50;0.30;;;22.50;99.90;;;;;;5113559;28;20384;-84
2021/06/28 09:06:14;;;;;;;0.40;0.30;;;22.50;99.90;;;;;;5109192;28;20939;-80
2021/06/28 09:09:07;;;;;;;0.40;0.30;;;22.60;99.90;;;;;;5077871;28;20462;-80
2021/06/28 09:11:41;;;;;;;0.40;0.20;;;22.70;99.90;;;;;;5115176;28;20766;-84
2021/06/28 09:14:10;;;;;;;0.40;0.20;;;23.00;99.90;;;;;;5078809;28;20424;-81
2021/06/28 09:16:37;;;;;;;0.40;0.20;;;23.20;99.90;;;;;;5103173;28;20392;-81
2021/06/28 09:19:14;;;;;;;0.40;0.30;;;23.20;99.90;;;;;;5113005;28;20775;-82
2021/06/28 09:21:42;;;;;;;0.40;0.20;;;23.40;99.90;;;;;;5094533;28;20475;-84
2021/06/28 09:24:36;;;;;;;0.40;0.30;;;23.00;99.90;;;;;;5108796;28;20411;-82
2021/06/28 09:27:11;;;;;;;0.40;0.20;;;23.30;99.90;;;;;;5097121;28;20438;-83
2021/06/28 09:29:41;;;;;;;0.40;0.20;;;23.30;99.90;;;;;;5078195;28;20430;-83
2021/06/28 09:32:14;;;;;;;0.40;0.30;;;23.30;99.90;;;;;;5097286;28;20469;-84
2021/06/28 09:34:42;;;;;;;0.40;0.20;;;23.20;99.90;;;;;;5114099;28;20388;-83
2021/06/28 09:37:25;;;;;;;0.60;0.40;;;23.20;99.90;;;;;;5094930;28;20385;-80
2021/06/28 09:39:53;;;;;;;0.40;0.20;;;22.70;99.90;;;;;;5075883;28;20438;-82
2021/06/28 09:42:22;;;;;;;0.40;0.20;;;23.60;99.90;;;;;;5110327;28;20471;-81
2021/06/28 09:44:51;;;;;;;0.40;0.30;;;23.60;99.90;;;;;;5114269;28;20372;-78
2021/06/28 09:47:18;;;;;;;0.40;0.30;;;23.00;99.90;;;;;;5096738;28;20494;-80
2021/06/28 09:50:05;;;;;;;0.40;0.20;;;23.40;99.90;;;;;;5114067;28;20876;-81
2021/06/28 09:52:43;;;;;;;0.40;0.23;;;23.20;99.90;;;;;;5114084;28;20393;-81
2021/06/28 09:55:18;;;;;;;0.40;0.30;;;23.20;99.90;;;;;;5092879;28;20405;-81
2021/06/28 09:58:30;;;;;;;0.40;0.30;;;23.00;99.90;;;;;;5075588;28;20886;-83
2021/06/28 10:00:59;;;;;;;0.40;0.30;;;22.90;99.90;;;;;;5075534;28;20462;-81
2021/06/28 10:03:43;;;;;;;0.40;0.30;;;23.20;99.90;;;;;;5114308;28;20393;-80
2021/06/28 10:08:48;;;;;;;0.40;0.25;;;23.30;99.90;;;;;;5095007;28;20424;-80
2021/06/28 10:11:22;;;;;;;0.40;0.20;;;23.30;99.90;;;;;;5113581;28;20381;-81
2021/06/28 10:14:00;;;;;;;0.40;0.20;;;23.90;99.90;;;;;;5095426;28;20408;-81
2021/06/28 10:16:31;;;;;;;0.40;0.30;;;23.50;99.90;;;;;;5114375;28;20483;-81
2021/06/28 10:18:59;;;;;;;0.40;0.20;;;23.40;99.90;;;;;;5113307;28;20411;-81
2021/06/28 10:21:25;;;;;;;0.40;0.30;;;23.70;99.90;;;;;;5075751;28;20390;-81
2021/06/28 10:23:52;;;;;;;0.40;0.20;;;23.20;99.90;;;;;;5107800;28;20399;-81
2021/06/28 10:26:18;;;;;;;0.40;0.20;;;23.50;99.90;;;;;;5112118;28;20412;-81
2021/06/28 10:28:44;;;;;;;0.40;0.30;;;23.70;99.90;;;;;;5093206;28;20410;-81
2021/06/28 10:31:11;;;;;;;0.40;0.30;;;23.60;99.90;;;;;;5110249;28;20376;-80
2021/06/28 10:33:39;;;;;;;0.40;0.30;;;23.70;99.90;;;;;;5103405;28;20788;-81
2021/06/28 10:36:09;;;;;;;0.40;0.20;;;23.60;99.90;;;;;;5093950;28;20523;-81
2021/06/28 10:38:48;;;;;;;0.40;0.30;;;23.70;99.90;;;;;;5114021;28;20517;-81
2021/06/28 10:41:34;;;;;;;0.40;0.40;;;23.80;99.90;;;;;;5099250;28;20379;-80
2021/06/28 10:44:00;;;;;;;0.40;0.30;;;24.00;99.90;;;;;;5099235;28;20388;-80
2021/06/28 10:46:35;;;;;;;0.40;0.20;;;24.30;99.90;;;;;;5099832;28;20566;-81
2021/06/28 10:49:02;;;;;;;0.40;0.20;;;23.90;99.90;;;;;;5113161;28;20380;-80
2021/06/28 10:51:50;;;;;;;0.40;0.20;;;24.00;99.90;;;;;;5089677;28;20390;-80
2021/06/28 10:54:32;;;;;;;0.40;0.20;;;24.20;99.90;;;;;;5104995;28;20403;-80
2021/06/28 10:56:59;;;;;;;0.40;0.20;;;24.40;99.90;;;;;;5104076;28;20406;-81
2021/06/28 10:59:27;;;;;;;0.40;0.20;;;24.60;99.90;;;;;;5093162;28;20386;-81
2021/06/28 11:02:01;;;;;;;0.40;0.30;;;24.30;99.90;;;;;;5111688;28;20454;-81
2021/06/28 11:04:33;;;;;;;0.40;0.20;;;24.20;99.90;;;;;;5103747;28;20527;-82
2021/06/28 11:07:13;;;;;;;0.40;0.30;;;24.60;99.90;;;;;;5094380;28;20439;-81
2021/06/28 11:09:54;;;;;;;0.40;0.30;;;24.80;99.90;;;;;;5113276;28;20389;-80
2021/06/28 11:12:28;;;;;;;0.40;0.30;;;25.00;99.90;;;;;;5094519;28;20387;-80
2021/06/28 11:15:10;;;;;;;0.40;0.30;;;24.70;99.90;;;;;;5102065;28;20522;-78
2021/06/28 11:17:55;;;;;;;0.40;0.30;;;24.30;99.90;;;;;;5094876;28;20392;-80
2021/06/28 11:20:38;;;;;;;0.40;0.30;;;24.70;99.90;;;;;;5092556;28;20862;-81
2021/06/28 11:23:09;;;;;;;0.40;0.20;;;24.90;99.90;;;;;;5111321;28;20399;-80
2021/06/28 11:25:39;;;;;;;0.40;0.30;;;24.80;99.90;;;;;;5099624;28;20410;-79
2021/06/28 11:28:10;;;;;;;0.40;0.30;;;24.70;99.90;;;;;;5087169;28;20491;-79
2021/06/28 11:30:56;;;;;;;0.40;0.30;;;24.70;99.90;;;;;;5108439;28;20394;-79
2021/06/28 11:33:50;;;;;;;0.40;0.30;;;24.80;99.90;;;;;;5092460;28;20366;-81
2021/06/28 11:36:28;;;;;;;0.40;0.30;;;25.00;99.90;;;;;;5111951;28;20745;-82
2021/06/28 11:39:08;;;;;;;0.40;0.30;;;25.00;99.90;;;;;;5100046;28;20469;-80
2021/06/28 11:41:35;;;;;;;0.40;0.20;;;25.00;99.90;;;;;;5100001;28;20813;-81
2021/06/28 11:44:02;;;;;;;0.40;0.20;;;25.00;99.90;;;;;;5112031;28;20416;-79
2021/06/28 11:46:31;;;;;;;0.40;0.30;;;25.40;99.90;;;;;;5076333;28;20464;-80
2021/06/28 11:49:05;;;;;;;0.40;0.20;;;25.80;99.90;;;;;;5098957;28;20396;-79
2021/06/28 11:51:36;;;;;;;0.40;0.20;;;25.80;99.90;;;;;;5092118;28;20801;-81
2021/06/28 11:54:04;;;;;;;0.50;0.40;;;26.10;99.90;;;;;;5093630;28;20740;-80
2021/06/28 11:56:33;;;;;;;0.40;0.30;;;26.00;99.90;;;;;;5098240;28;20402;-79
2021/06/28 11:59:03;;;;;;;0.50;0.40;;;26.50;99.90;;;;;;5107337;28;20856;-81
2021/06/28 12:01:35;;;;;;;0.40;0.20;;;26.40;99.90;;;;;;5111995;28;20372;-79
2021/06/28 12:04:03;;;;;;;0.40;0.20;;;27.10;99.10;;;;;;5099708;28;20398;-77
2021/06/28 12:06:32;;;;;;;0.40;0.30;;;26.90;99.30;;;;;;5091406;28;20405;-77
2021/06/28 12:09:34;;;;;;;0.40;0.30;;;26.50;99.90;;;;;;5102058;28;20400;-76
2021/06/28 12:12:27;;;;;;;0.50;0.30;;;26.60;99.90;;;;;;5092674;28;20408;-79
2021/06/28 12:14:53;;;;;;;0.40;0.20;;;26.90;99.30;;;;;;5090834;28;20463;-78
2021/06/28 12:17:20;;;;;;;0.40;0.30;;;26.90;99.90;;;;;;5083831;28;20759;-80
2021/06/28 12:19:48;;;;;;;0.40;0.20;;;26.60;99.90;;;;;;5097935;28;20447;-80
2021/06/28 12:22:18;;;;;;;0.40;0.30;;;26.40;99.90;;;;;;5080567;28;20397;-77
2021/06/28 12:24:46;;;;;;;0.40;0.20;;;26.10;99.10;;;;;;5100813;28;20392;-77
2021/06/28 12:27:15;;;;;;;0.40;0.20;;;26.60;99.90;;;;;;5099659;28;20413;-78
2021/06/28 12:29:48;;;;;;;0.40;0.30;;;26.80;99.90;;;;;;5099629;28;20431;-80
2021/06/28 12:32:23;;;;;;;0.40;0.20;;;26.90;99.50;;;;;;5098448;28;20380;-78
2021/06/28 12:35:00;;;;;;;0.40;0.30;;;27.00;99.10;;;;;;5099303;28;20390;-79
2021/06/28 12:37:41;;;;;;;0.40;0.30;;;27.70;99.50;;;;;;5087490;28;20945;-78
2021/06/28 12:40:46;;;;;;;0.50;0.30;;;27.40;99.90;;;;;;5099947;28;20552;-80
2021/06/28 12:43:16;;;;;;;0.40;0.20;;;27.50;99.90;;;;;;5101794;28;20445;-76
2021/06/28 12:45:45;;;;;;;0.40;0.30;;;27.40;99.90;;;;;;5105956;28;20424;-75
2021/06/28 12:48:15;;;;;;;0.40;0.30;;;27.40;99.90;;;;;;5090337;28;20405;-76
2021/06/28 12:50:41;;;;;;;0.40;0.20;;;27.00;99.90;;;;;;5090965;28;20780;-75
2021/06/28 12:53:14;;;;;;;0.40;0.30;;;27.20;99.50;;;;;;5090112;28;20746;-76
2021/06/28 12:55:43;;;;;;;0.40;0.20;;;27.60;99.90;;;;;;5090763;28;20416;-77
2021/06/28 12:58:17;;;;;;;0.40;0.20;;;28.00;98.00;;;;;;5097775;28;20787;-76